Time;durP1;ratioP1;P1;durP2;ratioP2;P2;SDS_P1;SDS_P2;PMS_P1;PMS_P2;Temp;Humidity;BMP_temperature;BMP_pressure;BME280_temperature;BME280_humidity;BME280_pressure;Samples;Min_cycle;Max_cycle;Signal;HPM_P1;HPM_P2
2022/08/29 00:01:57;;;;;;;21.30;15.45;;;589.50;2432.00;;;;;;5066887;28;20052;-82
2022/08/29 00:04:23;;;;;;;18.80;13.90;;;589.20;2432.00;;;;;;5033498;28;20112;-82
2022/08/29 00:06:49;;;;;;;16.92;14.07;;;589.10;2432.00;;;;;;5032153;28;20445;-82
2022/08/29 00:09:15;;;;;;;16.25;14.02;;;589.20;2432.00;;;;;;5037987;28;20021;-81
2022/08/29 00:11:40;;;;;;;17.50;13.38;;;589.20;2432.00;;;;;;5071813;28;20143;-83
2022/08/29 00:14:06;;;;;;;18.65;13.98;;;589.30;2432.00;;;;;;5070147;28;20104;-81
2022/08/29 00:16:32;;;;;;;20.52;14.27;;;589.40;2432.00;;;;;;5036666;28;20025;-82
2022/08/29 00:18:58;;;;;;;17.30;13.73;;;589.40;2432.00;;;;;;5038536;28;20107;-81
2022/08/29 00:21:24;;;;;;;20.67;14.48;;;589.30;2432.00;;;;;;5036974;28;20045;-81
2022/08/29 00:23:49;;;;;;;18.73;13.30;;;589.30;2432.00;;;;;;5074932;28;20470;-83
2022/08/29 00:26:15;;;;;;;18.15;13.95;;;589.50;2432.00;;;;;;5036522;28;20030;-82
2022/08/29 00:28:41;;;;;;;15.02;12.68;;;589.50;2432.00;;;;;;5046265;28;20481;-81
2022/08/29 00:31:07;;;;;;;17.95;13.52;;;589.70;2432.00;;;;;;5041196;28;20455;-81
2022/08/29 00:33:33;;;;;;;21.65;14.20;;;589.70;2432.00;;;;;;5037726;28;20036;-82
2022/08/29 00:35:58;;;;;;;26.80;13.68;;;589.70;2432.00;;;;;;5069316;28;20068;-81
2022/08/29 00:38:24;;;;;;;21.05;15.20;;;589.70;2432.00;;;;;;5048031;28;20090;-82
2022/08/29 00:40:52;;;;;;;17.80;13.55;;;589.30;2432.00;;;;;;5053765;28;20036;-80
2022/08/29 00:43:23;;;;;;;23.10;15.30;;;589.10;2432.00;;;;;;5042751;28;20029;-82
2022/08/29 00:45:55;;;;;;;20.75;14.57;;;588.90;2432.00;;;;;;5034046;28;20056;-82
2022/08/29 00:48:21;;;;;;;17.08;14.43;;;564.10;2432.00;;;;;;5046155;28;20032;-81
2022/08/29 00:51:04;;;;;;;17.42;13.38;;;564.10;2432.00;;;;;;5039337;28;20033;-82
2022/08/29 00:53:36;;;;;;;20.73;14.07;;;588.90;2432.00;;;;;;5034098;28;20030;-82
2022/08/29 00:56:05;;;;;;;19.30;14.48;;;588.90;2432.00;;;;;;5040039;28;20422;-81
2022/08/29 00:58:36;;;;;;;18.65;14.32;;;564.10;2432.00;;;;;;5045488;28;20029;-81
2022/08/29 01:01:03;;;;;;;20.73;14.15;;;588.90;2432.00;;;;;;5040244;28;20021;-80
2022/08/29 01:03:34;;;;;;;18.85;14.82;;;589.00;2432.00;;;;;;5040026;28;20037;-82
2022/08/29 01:06:01;;;;;;;22.23;14.88;;;564.10;2432.00;;;;;;5037693;28;20108;-82
2022/08/29 01:08:28;;;;;;;21.23;13.95;;;564.10;2432.00;;;;;;5038072;28;20033;-81
2022/08/29 01:13:41;;;;;;;19.10;14.73;;;588.80;2432.00;;;;;;5034390;28;20033;-81
2022/08/29 01:16:09;;;;;;;20.15;13.88;;;564.10;2432.00;;;;;;5070898;28;20466;-83
2022/08/29 01:18:38;;;;;;;20.13;13.23;;;564.10;2432.00;;;;;;5070289;28;20025;-82
2022/08/29 01:21:21;;;;;;;16.27;14.35;;;588.90;2432.00;;;;;;5037167;28;20037;-82
2022/08/29 01:24:08;;;;;;;17.85;14.38;;;588.80;2432.00;;;;;;5039105;28;20037;-81
2022/08/29 01:26:34;;;;;;;17.00;13.77;;;588.80;2432.00;;;;;;5034334;28;20026;-81
2022/08/29 01:29:00;;;;;;;20.25;14.07;;;564.00;2432.00;;;;;;5033049;28;20360;-81
2022/08/29 01:31:35;;;;;;;19.52;14.80;;;563.70;2432.00;;;;;;5040391;28;20077;-80
2022/08/29 01:34:01;;;;;;;22.65;13.32;;;563.80;2432.00;;;;;;5040070;28;20035;-81
2022/08/29 01:36:40;;;;;;;16.50;14.02;;;563.80;2432.00;;;;;;5067825;28;20072;-80
2022/08/29 01:39:07;;;;;;;21.38;15.02;;;563.80;2432.00;;;;;;5051323;28;20021;-81
2022/08/29 01:41:34;;;;;;;16.98;14.63;;;563.80;2432.00;;;;;;5052716;28;20033;-81
2022/08/29 01:44:00;;;;;;;18.15;14.38;;;563.90;2432.00;;;;;;5039902;28;20111;-80
2022/08/29 01:46:28;;;;;;;19.70;14.75;;;;;;;;;;5040684;28;20128;-80
2022/08/29 01:48:54;;;;;;;16.90;13.85;;;;;;;;;;5047508;28;20021;-80
2022/08/29 01:51:21;;;;;;;22.88;15.02;;;;;;;;;;5038607;28;20049;-79
2022/08/29 01:53:47;;;;;;;20.23;14.52;;;;;;;;;;5039905;28;20087;-80
2022/08/29 01:56:15;;;;;;;19.48;14.00;;;;;;;;;;5041096;28;20079;-80
2022/08/29 01:58:42;;;;;;;16.90;13.60;;;;;;;;;;5042097;28;20033;-80
2022/08/29 02:01:09;;;;;;;18.80;13.32;;;;;;;;;;5038543;28;20108;-80
2022/08/29 02:03:35;;;;;;;21.48;13.55;;;;;;;;;;5038128;28;20467;-80
2022/08/29 02:06:01;;;;;;;16.85;12.93;;;;;;;;;;5035613;28;20051;-81
2022/08/29 02:08:28;;;;;;;20.92;13.88;;;;;;;;;;5039104;28;20021;-80
2022/08/29 02:10:55;;;;;;;21.20;14.43;;;;;;;;;;5038332;28;20029;-81
2022/08/29 02:13:23;;;;;;;23.90;14.98;;;;;;;;;;5035263;28;20061;-80
2022/08/29 02:15:49;;;;;;;20.83;14.18;;;;;;;;;;5035818;28;20028;-81
2022/08/29 02:18:17;;;;;;;20.25;14.30;;;;;;;;;;5039941;28;20024;-80
2022/08/29 02:20:43;;;;;;;18.30;14.38;;;;;;;;;;5034807;28;20095;-80
2022/08/29 02:23:10;;;;;;;19.65;14.48;;;;;;;;;;5037255;28;20431;-81
2022/08/29 02:25:42;;;;;;;17.58;14.07;;;;;;;;;;5034111;28;20083;-80
2022/08/29 02:28:10;;;;;;;;;;;;;;;;;;5038608;28;20029;-81
2022/08/29 02:30:37;;;;;;;17.15;12.05;;;;;;;;;;5035932;28;19948;-80
2022/08/29 02:33:03;;;;;;;17.92;14.07;;;;;;;;;;5047789;28;20352;-80
2022/08/29 02:35:29;;;;;;;19.38;13.35;;;;;;;;;;5034052;28;20052;-81
2022/08/29 02:37:56;;;;;;;21.92;13.38;;;;;;;;;;5035043;28;20018;-80
2022/08/29 02:40:22;;;;;;;17.88;14.23;;;;;;;;;;5039637;28;20400;-81
2022/08/29 02:42:48;;;;;;;20.77;14.15;;;563.90;2432.00;;;;;;5049121;28;20026;-80
2022/08/29 02:45:14;;;;;;;22.88;14.35;;;;;;;;;;5043390;28;20035;-80
2022/08/29 02:47:40;;;;;;;20.35;12.73;;;;;;;;;;5046330;28;20091;-81
2022/08/29 02:50:08;;;;;;;18.63;13.40;;;;;;;;;;5034440;28;20037;-82
2022/08/29 02:52:34;;;;;;;17.83;13.10;;;;;;;;;;5044221;28;20025;-81
2022/08/29 02:55:01;;;;;;;23.38;14.27;;;;;;;;;;5036312;28;20017;-80
2022/08/29 02:57:27;;;;;;;20.08;14.00;;;;;;;;;;5036094;28;20026;-80
2022/08/29 02:59:53;;;;;;;23.17;13.35;;;;;;;;;;5033740;28;20030;-81
2022/08/29 03:02:19;;;;;;;18.63;14.02;;;;;;;;;;5038906;28;20531;-80
2022/08/29 03:04:45;;;;;;;21.90;13.88;;;563.40;2432.00;;;;;;5051339;28;20017;-81
2022/08/29 03:07:11;;;;;;;18.23;14.02;;;563.30;2432.00;;;;;;5051191;28;20033;-80
2022/08/29 03:09:36;;;;;;;21.90;14.80;;;563.20;2432.00;;;;;;5039883;28;20025;-80
2022/08/29 03:12:02;;;;;;;19.67;14.25;;;563.50;2432.00;;;;;;5040506;28;20032;-80
2022/08/29 03:14:28;;;;;;;20.05;13.48;;;563.50;2432.00;;;;;;5040411;28;20099;-82
2022/08/29 03:16:54;;;;;;;20.38;13.70;;;563.50;2432.00;;;;;;5037948;28;20476;-80
2022/08/29 03:19:21;;;;;;;19.05;13.43;;;563.50;2432.00;;;;;;5043593;28;20120;-81
2022/08/29 03:21:47;;;;;;;20.08;14.00;;;563.40;2432.00;;;;;;5037974;28;20086;-81
2022/08/29 03:24:14;;;;;;;17.33;13.73;;;;;;;;;;5034206;28;20029;-80
2022/08/29 03:26:40;;;;;;;21.48;14.50;;;;;;;;;;5036284;28;20205;-80
2022/08/29 03:29:05;;;;;;;21.58;12.80;;;538.40;2406.40;;;;;;5035004;28;20632;-81
2022/08/29 03:31:31;;;;;;;17.95;14.45;;;538.40;2406.40;;;;;;5040839;28;20034;-79
2022/08/29 03:33:57;;;;;;;23.20;14.93;;;538.50;2406.40;;;;;;5068085;28;20497;-81
2022/08/29 03:36:25;;;;;;;15.02;13.43;;;538.50;2406.40;;;;;;5071243;28;20040;-79
2022/08/29 03:38:52;;;;;;;18.85;14.70;;;538.50;2406.40;;;;;;5038506;28;20059;-81
2022/08/29 03:41:23;;;;;;;22.08;13.48;;;538.50;2406.40;;;;;;5040284;28;20029;-79
2022/08/29 03:43:50;;;;;;;14.40;12.90;;;563.30;2432.00;;;;;;5034281;28;20386;-80
2022/08/29 03:46:16;;;;;;;16.63;13.43;;;563.30;2432.00;;;;;;5066830;28;20099;-80
2022/08/29 03:48:42;;;;;;;18.65;13.80;;;563.30;2432.00;;;;;;5068994;28;20424;-80
2022/08/29 03:51:08;;;;;;;15.98;13.38;;;563.30;2432.00;;;;;;5035814;28;20034;-81
2022/08/29 03:53:34;;;;;;;17.50;12.52;;;563.20;2432.00;;;;;;5070007;28;20037;-79
2022/08/29 03:56:00;;;;;;;22.25;13.25;;;563.30;2432.00;;;;;;5036549;28;20148;-81
2022/08/29 03:58:26;;;;;;;16.50;12.30;;;563.30;2432.00;;;;;;5069151;28;20060;-80
2022/08/29 04:00:51;;;;;;;18.92;14.07;;;563.30;2432.00;;;;;;5037875;28;20057;-81
2022/08/29 04:03:18;;;;;;;15.85;13.23;;;563.20;2432.00;;;;;;5074058;28;20025;-82
2022/08/29 04:05:44;;;;;;;17.67;12.18;;;563.30;2432.00;;;;;;5035912;28;20067;-81
2022/08/29 04:08:10;;;;;;;16.38;13.25;;;563.40;2432.00;;;;;;5035862;28;20064;-80
2022/08/29 04:10:37;;;;;;;19.00;13.27;;;563.50;2432.00;;;;;;5036477;28;20037;-80
2022/08/29 04:13:05;;;;;;;16.27;13.38;;;563.50;2432.00;;;;;;5041494;28;20029;-80
2022/08/29 04:15:32;;;;;;;19.40;12.23;;;563.50;2432.00;;;;;;5039722;28;20100;-82
2022/08/29 04:18:01;;;;;;;22.23;12.75;;;563.50;2432.00;;;;;;5042573;28;20463;-80
2022/08/29 04:20:30;;;;;;;17.42;12.80;;;563.50;2432.00;;;;;;5037460;28;20076;-81
2022/08/29 04:22:58;;;;;;;17.90;13.63;;;563.50;2432.00;;;;;;5067299;28;20113;-80
2022/08/29 04:25:25;;;;;;;18.80;13.95;;;563.40;2432.00;;;;;;5068760;28;20133;-79
2022/08/29 04:27:52;;;;;;;17.90;13.20;;;563.30;2432.00;;;;;;5041341;28;20049;-80
2022/08/29 04:30:20;;;;;;;20.15;13.32;;;563.40;2432.00;;;;;;5071364;28;20033;-80
2022/08/29 04:32:46;;;;;;;17.88;14.10;;;563.40;2432.00;;;;;;5034426;28;20467;-82
2022/08/29 04:35:13;;;;;;;22.58;16.20;;;563.30;2432.00;;;;;;5037233;28;20038;-81
2022/08/29 04:37:40;;;;;;;24.58;16.08;;;538.40;2406.40;;;;;;5068515;28;20394;-79
2022/08/29 04:40:07;;;;;;;25.60;15.85;;;;;;;;;;5042816;28;20036;-79
2022/08/29 04:42:35;;;;;;;19.60;16.25;;;;;;;;;;5038217;28;20025;-81
2022/08/29 04:45:01;;;;;;;27.13;15.43;;;;;;;;;;5035242;28;20021;-80
2022/08/29 04:47:27;;;;;;;24.17;16.15;;;;;;;;;;5036607;28;20060;-80
2022/08/29 04:49:55;;;;;;;24.00;16.80;;;;;;;;;;5034969;28;20107;-79
2022/08/29 04:52:21;;;;;;;19.67;15.02;;;;;;;;;;5036949;28;20507;-79
2022/08/29 04:54:47;;;;;;;21.27;15.82;;;563.40;2432.00;;;;;;5042066;28;20021;-80
2022/08/29 04:57:13;;;;;;;19.13;13.73;;;;;;;;;;5053122;28;20028;-79
2022/08/29 04:59:39;;;;;;;21.98;15.73;;;;;;;;;;5049388;28;20017;-80
2022/08/29 05:02:05;;;;;;;29.67;16.58;;;;;;;;;;5035737;28;20029;-79
2022/08/29 05:04:32;;;;;;;20.08;15.18;;;;;;;;;;5035656;28;20029;-81
2022/08/29 05:06:58;;;;;;;27.52;16.98;;;;;;;;;;5044609;28;20486;-82
2022/08/29 05:09:24;;;;;;;25.08;15.65;;;;;;;;;;5037317;28;20025;-82
2022/08/29 05:11:50;;;;;;;21.52;15.52;;;;;;;;;;5039179;28;20417;-80
2022/08/29 05:14:16;;;;;;;22.98;16.23;;;;;;;;;;5039191;28;20078;-81
2022/08/29 05:16:42;;;;;;;16.63;13.63;;;563.80;2432.00;;;;;;5039622;28;20112;-78
2022/08/29 05:19:08;;;;;;;17.38;13.45;;;563.80;2432.00;;;;;;5075621;28;20492;-79
2022/08/29 05:21:36;;;;;;;22.55;13.65;;;563.60;2432.00;;;;;;5037537;28;20032;-79
2022/08/29 05:24:05;;;;;;;25.90;15.00;;;563.50;2432.00;;;;;;5040007;28;20029;-80
2022/08/29 05:26:35;;;;;;;19.30;13.77;;;563.50;2432.00;;;;;;5038060;28;20037;-79
2022/08/29 05:29:02;;;;;;;20.83;14.35;;;563.60;2432.00;;;;;;5072975;28;20091;-80
2022/08/29 05:31:28;;;;;;;16.15;13.88;;;563.70;2432.00;;;;;;5039096;28;20474;-80
2022/08/29 05:33:54;;;;;;;20.38;14.35;;;563.70;2432.00;;;;;;5038954;28;20040;-80
2022/08/29 05:36:20;;;;;;;24.40;14.52;;;563.90;2432.00;;;;;;5041461;28;20045;-81
2022/08/29 05:38:46;;;;;;;18.38;13.73;;;564.10;2432.00;;;;;;5071279;28;20501;-80
2022/08/29 05:41:12;;;;;;;25.73;15.73;;;;;;;;;;5070495;28;20532;-80
2022/08/29 05:43:38;;;;;;;22.23;13.75;;;588.90;2432.00;;;;;;5042832;28;20017;-82
2022/08/29 05:46:06;;;;;;;25.48;15.63;;;564.10;2432.00;;;;;;5045900;28;20041;-81
2022/08/29 05:48:33;;;;;;;18.50;13.50;;;563.80;2432.00;;;;;;5052931;28;20052;-81
2022/08/29 05:50:59;;;;;;;15.73;14.20;;;564.00;2432.00;;;;;;5043622;28;20094;-81
2022/08/29 05:53:26;;;;;;;18.98;14.35;;;564.00;2432.00;;;;;;5066732;28;20044;-80
2022/08/29 05:55:52;;;;;;;15.35;13.43;;;563.90;2432.00;;;;;;5038806;28;20025;-79
2022/08/29 05:58:18;;;;;;;20.13;14.23;;;564.10;2432.00;;;;;;5068153;28;20025;-80
2022/08/29 06:00:46;;;;;;;22.58;14.32;;;564.10;2432.00;;;;;;5071308;28;20032;-79
2022/08/29 06:03:12;;;;;;;19.88;14.32;;;564.00;2432.00;;;;;;5037987;28;20025;-80
2022/08/29 06:05:39;;;;;;;20.48;14.52;;;564.10;2432.00;;;;;;5036535;28;20060;-80
2022/08/29 06:08:06;;;;;;;21.33;14.88;;;;;;;;;;5071629;28;20040;-80
2022/08/29 06:10:33;;;;;;;17.08;14.15;;;;;;;;;;5034079;28;20083;-80
2022/08/29 06:12:59;;;;;;;17.55;14.15;;;;;;;;;;5035235;28;20033;-78
2022/08/29 06:15:27;;;;;;;18.63;14.27;;;;;;;;;;5043402;28;20484;-80
2022/08/29 06:17:53;;;;;;;16.95;12.85;;;;;;;;;;5035757;28;20112;-79
2022/08/29 06:20:20;;;;;;;18.75;13.15;;;;;;;;;;5043277;28;20021;-80
2022/08/29 06:22:46;;;;;;;14.10;12.63;;;;;;;;;;5042898;28;20387;-79
2022/08/29 06:25:12;;;;;;;19.38;14.27;;;;;;;;;;5034420;28;20026;-78
2022/08/29 06:27:38;;;;;;;19.80;13.02;;;589.50;2432.00;;;;;;5040602;28;20099;-81
2022/08/29 06:30:05;;;;;;;18.52;13.27;;;589.40;2432.00;;;;;;5038223;28;20483;-81
2022/08/29 06:32:31;;;;;;;17.75;14.32;;;589.50;2432.00;;;;;;5047157;28;20029;-82
2022/08/29 06:34:57;;;;;;;20.30;13.50;;;589.70;2432.00;;;;;;5066346;28;20048;-81
2022/08/29 06:37:23;;;;;;;15.23;12.02;;;589.60;2432.00;;;;;;5036454;28;20021;-82
2022/08/29 06:39:48;;;;;;;21.55;12.88;;;589.50;2432.00;;;;;;5035142;28;20117;-80
2022/08/29 06:42:17;;;;;;;17.02;13.02;;;589.50;2432.00;;;;;;5039227;28;20079;-80
2022/08/29 06:44:44;;;;;;;20.92;11.85;;;589.50;2432.00;;;;;;5034258;28;20475;-82
2022/08/29 06:47:10;;;;;;;26.10;14.18;;;589.60;2432.00;;;;;;5039643;28;20049;-81
2022/08/29 06:49:35;;;;;;;22.08;12.98;;;589.60;2432.00;;;;;;5033942;28;20398;-81
2022/08/29 06:52:01;;;;;;;18.02;12.45;;;589.70;2432.00;;;;;;5047816;28;20021;-81
2022/08/29 06:54:28;;;;;;;19.15;12.90;;;589.70;2432.00;;;;;;5032724;28;20057;-82
2022/08/29 06:56:55;;;;;;;17.50;13.45;;;614.40;2432.00;;;;;;5069957;28;20107;-83
2022/08/29 06:59:21;;;;;;;23.35;13.10;;;614.50;2432.00;;;;;;5069555;28;20420;-84
2022/08/29 07:01:47;;;;;;;14.38;11.82;;;614.60;2432.00;;;;;;5034891;28;20036;-82
2022/08/29 07:04:13;;;;;;;15.32;11.07;;;614.70;2432.00;;;;;;5037709;28;20056;-83
2022/08/29 07:06:40;;;;;;;14.40;10.65;;;614.80;2432.00;;;;;;5037333;28;20031;-79
2022/08/29 07:09:06;;;;;;;19.33;11.57;;;615.00;2432.00;;;;;;5034516;28;20029;-82
2022/08/29 07:11:33;;;;;;;16.95;10.65;;;615.00;2432.00;;;;;;5036894;28;20131;-83
2022/08/29 07:14:03;;;;;;;14.57;9.63;;;615.10;2432.00;;;;;;5065215;28;20025;-81
2022/08/29 07:16:30;;;;;;;13.98;9.77;;;615.00;2432.00;;;;;;5050640;28;20030;-80
2022/08/29 07:18:56;;;;;;;22.00;11.02;;;615.00;2432.00;;;;;;5033750;28;20021;-81
2022/08/29 07:21:24;;;;;;;16.05;9.57;;;615.10;2432.00;;;;;;5039550;28;20078;-81
2022/08/29 07:23:52;;;;;;;14.77;9.88;;;615.20;2432.00;;;;;;5032476;28;20475;-80
2022/08/29 07:26:30;;;;;;;12.80;9.40;;;615.00;2432.00;;;;;;5038006;28;20115;-82
2022/08/29 07:29:00;;;;;;;13.68;9.50;;;615.00;2432.00;;;;;;5035903;28;20033;-81
2022/08/29 07:31:26;;;;;;;14.13;9.95;;;615.30;2432.00;;;;;;5041396;28;20068;-83
2022/08/29 07:33:52;;;;;;;16.15;9.93;;;615.30;2432.00;;;;;;5040376;28;20052;-83
2022/08/29 07:36:18;;;;;;;12.13;9.45;;;640.00;2432.00;;;;;;5039970;28;20041;-82
2022/08/29 07:38:43;;;;;;;13.50;10.05;;;640.10;2432.00;;;;;;5044179;28;20060;-82
2022/08/29 07:41:15;;;;;;;15.00;10.38;;;640.20;2432.00;;;;;;5065641;28;20033;-82
2022/08/29 07:43:42;;;;;;;11.87;9.00;;;640.20;2432.00;;;;;;5077335;28;20098;-83
2022/08/29 07:46:10;;;;;;;15.25;9.82;;;640.40;2432.00;;;;;;5051205;28;20036;-84
2022/08/29 07:48:37;;;;;;;16.98;10.82;;;640.70;2432.00;;;;;;5043360;28;20032;-83
2022/08/29 07:51:13;;;;;;;13.38;9.57;;;640.60;2432.00;;;;;;5039368;28;21666;-84
2022/08/29 07:53:45;;;;;;;12.00;8.70;;;640.70;2432.00;;;;;;5042772;28;20053;-84
2022/08/29 07:56:24;;;;;;;13.95;8.30;;;640.80;2432.00;;;;;;5058503;28;20698;-81
2022/08/29 07:58:49;;;;;;;15.88;8.25;;;640.90;2432.00;;;;;;5040995;28;20036;-82
2022/08/29 08:01:15;;;;;;;10.00;8.23;;;640.90;2432.00;;;;;;5031454;28;20410;-82
2022/08/29 08:03:41;;;;;;;12.63;8.45;;;665.60;2432.00;;;;;;5033918;28;20076;-82
2022/08/29 08:06:09;;;;;;;14.45;8.15;;;665.70;2432.00;;;;;;5040256;28;20364;-82
2022/08/29 08:08:47;;;;;;;11.43;8.35;;;665.80;2432.00;;;;;;5036536;28;20029;-84
2022/08/29 08:11:16;;;;;;;13.52;8.15;;;665.70;2432.00;;;;;;5038726;28;20463;-81
2022/08/29 08:13:43;;;;;;;15.23;7.82;;;665.80;2432.00;;;;;;5037108;28;20043;-83
2022/08/29 08:16:12;;;;;;;14.60;8.30;;;665.70;2432.00;;;;;;5039136;28;20025;-82
2022/08/29 08:18:40;;;;;;;12.23;8.07;;;665.70;2432.00;;;;;;5042259;28;20079;-82
2022/08/29 08:21:07;;;;;;;12.98;8.07;;;666.00;2432.00;;;;;;5077027;28;20044;-82
2022/08/29 08:23:33;;;;;;;13.85;9.30;;;665.90;2432.00;;;;;;5044455;28;20031;-83
2022/08/29 08:26:02;;;;;;;12.80;8.07;;;666.10;2432.00;;;;;;5045953;28;20420;-83
2022/08/29 08:28:35;;;;;;;17.75;7.93;;;666.30;2432.00;;;;;;5038641;28;21410;-83
2022/08/29 08:31:00;;;;;;;;;;;666.50;2432.00;;;;;;5041603;28;20124;-81
2022/08/29 08:33:26;;;;;;;13.70;7.75;;;691.20;2432.00;;;;;;5041033;28;20014;-82
2022/08/29 08:35:52;;;;;;;13.02;8.27;;;691.30;2432.00;;;;;;5042328;28;20041;-81
2022/08/29 08:38:20;;;;;;;9.48;6.82;;;691.40;2432.00;;;;;;5038767;28;20126;-82
2022/08/29 08:40:55;;;;;;;12.25;7.10;;;691.60;2432.00;;;;;;5038856;28;20091;-83
2022/08/29 08:43:27;;;;;;;12.63;7.15;;;691.30;2432.00;;;;;;5040322;28;20079;-84
2022/08/29 08:45:54;;;;;;;10.20;6.70;;;691.60;2432.00;;;;;;5042098;28;20164;-84
2022/08/29 08:48:32;;;;;;;11.85;7.45;;;691.60;2432.00;;;;;;5044672;28;20033;-84
2022/08/29 08:51:24;;;;;;;15.00;7.28;;;691.80;2432.00;;;;;;5048131;28;20094;-83
2022/08/29 08:53:56;;;;;;;13.82;6.78;;;691.80;2432.00;;;;;;5044023;28;20115;-83
2022/08/29 08:56:31;;;;;;;12.07;7.43;;;691.90;2432.00;;;;;;5043392;28;20036;-83
2022/08/29 08:59:28;;;;;;;9.77;7.35;;;691.80;2432.00;;;;;;5044270;28;20030;-82
2022/08/29 09:02:00;;;;;;;15.20;7.50;;;692.10;2432.00;;;;;;5046048;28;20142;-82
2022/08/29 09:04:32;;;;;;;10.55;7.85;;;716.90;2432.00;;;;;;5047638;28;20039;-83
2022/08/29 09:07:15;;;;;;;15.13;8.02;;;717.10;2432.00;;;;;;5040128;28;20028;-80
2022/08/29 09:10:02;;;;;;;11.63;6.80;;;;;;;;;;5048934;28;20040;-79
2022/08/29 09:12:37;;;;;;;10.45;6.28;;;;;;;;;;5048475;28;20049;-82
2022/08/29 09:15:11;;;;;;;12.35;7.15;;;717.40;2432.00;;;;;;5038986;28;20025;-82
2022/08/29 09:17:44;;;;;;;12.20;6.95;;;717.40;2432.00;;;;;;5040598;28;20039;-83
2022/08/29 09:20:15;;;;;;;11.95;6.68;;;717.50;2432.00;;;;;;5041785;28;20025;-82
2022/08/29 09:22:49;;;;;;;12.00;7.38;;;717.30;2432.00;;;;;;5047892;28;20459;-81
2022/08/29 09:25:14;;;;;;;11.90;7.53;;;717.20;2432.00;;;;;;5053068;28;20260;-81
2022/08/29 09:27:40;;;;;;;13.50;7.32;;;717.40;2432.00;;;;;;5046406;28;20387;-82
2022/08/29 09:30:12;;;;;;;13.95;7.05;;;717.70;2432.00;;;;;;5045211;28;20083;-82
2022/08/29 09:33:01;;;;;;;11.90;7.45;;;717.60;2432.00;;;;;;5056425;28;20025;-82
2022/08/29 09:35:39;;;;;;;12.77;7.47;;;717.70;2432.00;;;;;;5072873;28;20052;-81
2022/08/29 09:38:17;;;;;;;11.70;7.68;;;742.50;2432.00;;;;;;5036425;28;20040;-82
2022/08/29 09:40:54;;;;;;;10.70;7.45;;;742.60;2432.00;;;;;;5037508;28;20029;-81
2022/08/29 09:43:38;;;;;;;14.07;6.68;;;742.70;2432.00;;;;;;5037386;28;20482;-83
2022/08/29 09:46:14;;;;;;;12.60;7.75;;;742.90;2432.00;;;;;;5043655;28;20059;-82
2022/08/29 09:49:03;;;;;;;12.93;7.93;;;743.10;2432.00;;;;;;5039373;28;20128;-82
2022/08/29 09:51:35;;;;;;;12.25;7.30;;;743.00;2432.00;;;;;;5036322;28;20049;-83
2022/08/29 09:54:31;;;;;;;12.13;7.47;;;743.10;2432.00;;;;;;5046030;28;20025;-83
2022/08/29 09:57:03;;;;;;;10.88;6.40;;;743.20;2432.00;;;;;;5036688;28;20057;-83
2022/08/29 09:59:32;;;;;;;15.93;7.22;;;768.00;2432.00;;;;;;5039335;28;20033;-82
2022/08/29 10:02:26;;;;;;;10.13;6.90;;;768.10;2432.00;;;;;;5039550;28;20041;-81
2022/08/29 10:05:02;;;;;;;9.20;6.53;;;768.40;2432.00;;;;;;5042145;28;20032;-83
2022/08/29 10:07:45;;;;;;;15.93;7.93;;;768.60;2432.00;;;;;;5044797;28;20026;-83
2022/08/29 10:10:20;;;;;;;12.98;6.72;;;768.50;2406.40;;;;;;5058193;28;20036;-81
2022/08/29 10:12:52;;;;;;;10.02;6.82;;;768.60;2406.40;;;;;;5077904;28;20036;-82
2022/08/29 10:15:28;;;;;;;10.38;6.75;;;768.70;2380.80;;;;;;5039956;28;20505;-81
2022/08/29 10:18:26;;;;;;;10.10;6.80;;;768.60;2380.80;;;;;;5041719;28;20064;-81
2022/08/29 10:21:11;;;;;;;11.38;6.30;;;768.40;2355.20;;;;;;5036874;28;20060;-81
2022/08/29 10:23:52;;;;;;;11.93;7.18;;;768.80;2406.40;;;;;;5038525;28;20029;-81
2022/08/29 10:26:25;;;;;;;9.93;6.57;;;793.80;2380.80;;;;;;5034176;28;20025;-82
2022/08/29 10:29:25;;;;;;;10.30;6.20;;;794.00;2380.80;;;;;;5045884;28;20382;-81
2022/08/29 10:32:06;;;;;;;11.15;6.80;;;793.90;2304.00;;;;;;5039323;28;21064;-82
2022/08/29 10:34:41;;;;;;;9.63;7.47;;;794.20;2329.60;;;;;;5044607;28;20060;-81
2022/08/29 10:37:36;;;;;;;8.93;6.20;;;794.50;2329.60;;;;;;5052076;28;20475;-83
2022/08/29 10:40:38;;;;;;;10.50;6.43;;;819.60;2304.00;;;;;;5049408;28;20090;-81
2022/08/29 10:43:28;;;;;;;8.18;6.07;;;819.60;2252.80;;;;;;5033340;28;20025;-82
2022/08/29 10:46:07;;;;;;;12.43;6.88;;;819.80;2252.80;;;;;;5046302;28;20488;-82
2022/08/29 10:49:19;;;;;;;12.90;7.38;;;820.00;2252.80;;;;;;5045426;28;20021;-83
2022/08/29 10:51:55;;;;;;;8.43;6.13;;;820.00;2252.80;;;;;;5028701;28;20049;-82
2022/08/29 10:54:51;;;;;;;12.13;6.45;;;844.90;2252.80;;;;;;5045118;28;20033;-84
2022/08/29 10:57:43;;;;;;;7.88;5.70;;;844.80;2227.20;;;;;;5039142;28;20040;-83
2022/08/29 11:00:23;;;;;;;12.70;5.40;;;845.10;2176.00;;;;;;5037876;28;20498;-83
2022/08/29 11:03:03;;;;;;;8.88;5.68;;;844.90;2201.60;;;;;;5036722;28;20375;-81
2022/08/29 11:05:37;;;;;;;8.35;6.05;;;844.90;2176.00;;;;;;5043563;28;20025;-82
2022/08/29 11:08:16;;;;;;;17.95;6.57;;;820.10;2099.20;;;;;;5037260;28;20470;-83
2022/08/29 11:10:48;;;;;;;10.43;6.18;;;844.80;2176.00;;;;;;5044991;28;20091;-83
2022/08/29 11:13:34;;;;;;;15.00;5.90;;;844.90;2124.80;;;;;;5044877;28;20514;-84
2022/08/29 11:16:14;;;;;;;12.63;7.00;;;845.00;2099.20;;;;;;5038415;28;20021;-82
2022/08/29 11:19:12;;;;;;;10.70;5.68;;;845.30;2124.80;;;;;;5035791;28;20033;-83
2022/08/29 11:21:50;;;;;;;15.00;5.47;;;845.10;2073.60;;;;;;5031070;28;20034;-84
2022/08/29 11:24:17;;;;;;;7.88;5.78;;;845.30;2048.00;;;;;;5040569;28;20021;-84
2022/08/29 11:26:43;;;;;;;13.43;5.85;;;845.50;2022.40;;;;;;5045353;28;20029;-83
2022/08/29 11:29:24;;;;;;;11.07;5.70;;;845.60;1971.20;;;;;;5044639;28;20383;-83
2022/08/29 11:31:59;;;;;;;12.77;5.70;;;845.70;1996.80;;;;;;5044802;28;20033;-82
2022/08/29 11:34:43;;;;;;;10.48;5.32;;;870.60;1971.20;;;;;;5045559;28;20070;-81
2022/08/29 11:37:21;;;;;;;10.45;4.10;;;870.70;1996.80;;;;;;5040265;28;20471;-81
2022/08/29 11:40:07;;;;;;;5.75;4.50;;;870.90;1894.40;;;;;;5031583;28;20025;-80
2022/08/29 11:42:37;;;;;;;8.05;3.03;;;871.00;1894.40;;;;;;5032096;28;20041;-80
2022/08/29 11:45:05;;;;;;;6.07;2.90;;;871.00;1740.80;;;;;;5037570;28;20025;-80
2022/08/29 11:47:33;;;;;;;4.78;2.88;;;871.10;1766.40;;;;;;5035943;28;20025;-81
2022/08/29 11:50:26;;;;;;;8.63;2.65;;;871.30;1766.40;;;;;;5038060;28;20029;-82
2022/08/29 11:53:10;;;;;;;5.05;3.20;;;871.10;1715.20;;;;;;5035938;28;20028;-82
2022/08/29 11:55:39;;;;;;;5.55;3.10;;;871.30;1766.40;;;;;;5037497;28;20063;-82
2022/08/29 11:58:24;;;;;;;6.15;3.03;;;871.20;1740.80;;;;;;5045377;28;20024;-82
2022/08/29 12:00:55;;;;;;;6.75;3.88;;;896.10;1664.00;;;;;;5050803;28;20044;-81
2022/08/29 12:03:33;;;;;;;6.50;3.30;;;896.30;1638.40;;;;;;5041206;28;20049;-82
2022/08/29 12:06:21;;;;;;;6.35;3.50;;;896.30;1638.40;;;;;;5040853;28;20275;-83
2022/08/29 12:09:13;;;;;;;5.65;3.75;;;896.40;1612.80;;;;;;5075682;28;20057;-83
2022/08/29 12:12:03;;;;;;;5.93;2.72;;;896.70;1638.40;;;;;;5029166;28;20038;-81
2022/08/29 12:14:35;;;;;;;5.65;3.67;;;896.20;1638.40;;;;;;5044982;28;20039;-82
2022/08/29 12:17:02;;;;;;;;;;;896.70;1664.00;;;;;;5035531;28;20032;-83
2022/08/29 12:20:13;;;;;;;6.43;2.90;;;896.80;1612.80;;;;;;5047473;28;19909;-83
2022/08/29 12:22:51;;;;;;;8.00;3.75;;;896.90;1612.80;;;;;;5039969;28;20487;-81
2022/08/29 12:25:26;;;;;;;6.85;3.53;;;921.80;1664.00;;;;;;5037864;28;20029;-83
2022/08/29 12:28:22;;;;;;;7.95;3.13;;;896.90;1510.40;;;;;;5051873;28;20028;-83
2022/08/29 12:30:57;;;;;;;7.65;3.50;;;896.90;1536.00;;;;;;5051339;28;20123;-84
2022/08/29 12:33:37;;;;;;;5.82;3.13;;;921.80;1561.60;;;;;;5047238;28;20029;-79
2022/08/29 12:36:06;;;;;;;8.70;4.18;;;921.70;1536.00;;;;;;5049976;28;20042;-82
2022/08/29 12:38:44;;;;;;;5.10;3.30;;;922.00;1561.60;;;;;;5047242;28;20444;-82
2022/08/29 12:41:35;;;;;;;6.55;3.20;;;922.30;1536.00;;;;;;5053398;28;20033;-82
2022/08/29 12:44:07;;;;;;;9.48;5.75;;;922.10;1587.20;;;;;;5047898;28;20108;-82
2022/08/29 12:46:43;;;;;;;9.75;6.07;;;922.40;1587.20;;;;;;5045874;28;20033;-83
2022/08/29 12:49:29;;;;;;;7.43;4.20;;;947.20;1561.60;;;;;;5051316;28;20116;-83
2022/08/29 12:52:00;;;;;;;6.82;3.10;;;947.50;1561.60;;;;;;5054083;28;20060;-81